Airfield :
LOGIN :

Register | Disclaimer

   EN    FR    IT 

 










Legend :    VFR   Marginal VFR   IFR   Intensive IFR   Very Intensive IFR
Visi :
Ceiling :
>= 8 km
>= 3000ft
5 to 8 km
1000 to 3000 ft
1500m to 5 km
500 to 1000 ft
800 to 1500m
200 to 500 ft
< 800m
< 200 ft
Symbols :   Thunderstorms  Fog  Heavy snow  Heavy precipitations  Wind > 20 kt
SIGMETs :     Misc.  Thunderstorms  Icing  Turbulence  Mountain Waves  Volcanic Ashes







- Airport Elevation : 93 ft
- IATA code : XRY


LEJR - Jerez

CURRENT METAR :
  • 230300Z AUTO VRB01KT CAVOK 17/16 Q1020

EXPIRED METARs :
  • 230230Z AUTO 06003KT CAVOK 17/17 Q1020
  • 230200Z AUTO 05003KT CAVOK 17/16 Q1021
  • 230130Z AUTO 00000KT CAVOK 17/17 Q1021
  • 230100Z AUTO 08002KT CAVOK 17/16 Q1020
  • 230030Z AUTO VRB01KT CAVOK 18/17 Q1020

TAF TAF LEJR
Valid from the 23 at 00:00 until the 24 at 00:00 UTC


222300Z 2300/2324 13005KT CAVOK TX25/2316Z TN14/2305Z
PROB30
TEMPO 2302/2309 4000 BR
PROB30
TEMPO 2311/2316 SHRA FEW030TCU
No reported NOTAMs for that airfield.
1 SIGMET reported for the Madrid FIR (LECM) :
 
Severe turbulence
LECM SIGMET 1 VALID 230100/230500 LEVA
LECM MADRID UIR SEV TURB FCST WI N3553 W00450 - N3558 W00721 - N3916 W00653 - N3952 W00324 - N3952 W00101 - N3744 W00135 - N3735 W00335 - N3553 W00450 FL260/390 STNR WKN=



MET'MAP, your aeronautical weather chart ! - Copyright ORBIFLY December 2007 - Disclaimer

ORBIFLY MET'MAP TEAM :

Programming & Development : Alexandra Zaïnal
Concept & Development : Baudouin d'Aumeries
Co-Development & Prog : Marc-Olivier Méhu
Technical & hardware support : Manuel Goepfert

Contact : metmap@orbifly.com




SOURCES & CREDITS :

   NOAA